createdAt,value
2023-01-01T00:00:50.307Z,12.20
2023-01-01T00:03:38.956Z,12.18
2023-01-01T00:06:14.030Z,12.18
2023-01-01T00:08:42.741Z,12.20
2023-01-01T00:11:11.873Z,12.22
2023-01-01T00:13:41.360Z,12.22
2023-01-01T00:16:14.643Z,12.21
2023-01-01T00:18:42.686Z,12.21
2023-01-01T00:21:17.709Z,12.20
2023-01-01T00:23:45.768Z,12.20
2023-01-01T00:26:17.116Z,12.21
2023-01-01T00:28:46.192Z,12.20
2023-01-01T00:31:20.657Z,12.19
2023-01-01T00:33:55.166Z,12.19
2023-01-01T00:36:25.375Z,12.24
2023-01-01T00:38:53.684Z,12.28
2023-01-01T00:41:22.190Z,12.31
2023-01-01T00:43:50.083Z,12.31
2023-01-01T00:46:17.733Z,12.28
2023-01-01T00:48:46.396Z,12.22
2023-01-01T00:51:15.010Z,12.18
2023-01-01T00:53:43.080Z,12.15
2023-01-01T00:56:10.874Z,12.15
2023-01-01T00:58:38.836Z,12.15
2023-01-01T01:01:06.861Z,12.08
2023-01-01T01:03:34.906Z,12.02
2023-01-01T01:06:05.097Z,11.94
2023-01-01T01:08:35.534Z,11.86
2023-01-01T01:11:14.934Z,11.83
2023-01-01T01:13:45.576Z,11.77
2023-01-01T01:16:22.128Z,11.73
2023-01-01T01:18:56.163Z,11.69
2023-01-01T01:21:25.273Z,11.66
2023-01-01T01:23:54.402Z,11.68
2023-01-01T01:26:26.480Z,11.66
2023-01-01T01:28:54.631Z,11.64
2023-01-01T01:31:25.384Z,11.65
2023-01-01T01:33:53.354Z,11.69
2023-01-01T01:36:21.472Z,11.76
2023-01-01T01:38:49.556Z,11.78
2023-01-01T01:41:27.867Z,11.81
2023-01-01T01:44:02.353Z,11.81
2023-01-01T01:46:44.475Z,11.79
2023-01-01T01:49:28.996Z,11.80
2023-01-01T01:51:57.837Z,11.79
2023-01-01T01:54:27.786Z,11.83
2023-01-01T01:57:03.750Z,11.83
2023-01-01T01:59:38.507Z,11.81
2023-01-01T02:02:37.575Z,11.77
2023-01-01T02:05:06.739Z,11.77
2023-01-01T02:07:36.250Z,11.78
2023-01-01T02:10:05.178Z,11.82
2023-01-01T02:12:33.016Z,11.79
2023-01-01T02:15:01.324Z,11.72
2023-01-01T02:17:38.979Z,11.62
2023-01-01T02:20:38.322Z,11.51
2023-01-01T02:23:33.128Z,11.44
2023-01-01T02:26:40.604Z,11.35
2023-01-01T02:29:36.930Z,11.28
2023-01-01T02:32:14.578Z,11.20
2023-01-01T02:35:28.706Z,11.13
2023-01-01T02:38:03.903Z,11.08
2023-01-01T02:40:34.445Z,10.99
2023-01-01T02:43:03.976Z,10.96
2023-01-01T02:45:32.303Z,10.94
2023-01-01T02:48:06.640Z,10.92
2023-01-01T02:50:35.376Z,10.89
2023-01-01T02:53:28.904Z,10.88
2023-01-01T02:56:17.042Z,10.77
2023-01-01T02:59:18.159Z,10.70
2023-01-01T03:02:23.067Z,10.60
2023-01-01T03:05:21.659Z,10.55
2023-01-01T03:08:17.293Z,10.50
2023-01-01T03:11:03.865Z,10.47
2023-01-01T03:14:25.105Z,10.46
2023-01-01T03:17:36.161Z,10.46
2023-01-01T03:20:12.051Z,10.46
2023-01-01T03:25:19.741Z,10.48
2023-01-01T03:27:53.013Z,10.51
2023-01-01T03:30:21.711Z,10.54
2023-01-01T03:33:03.405Z,10.60
2023-01-01T03:35:43.832Z,10.64
2023-01-01T03:38:28.431Z,10.69
2023-01-01T03:41:20.895Z,10.71
2023-01-01T03:44:14.044Z,10.71
2023-01-01T03:46:42.535Z,10.71
2023-01-01T03:49:13.140Z,10.71
2023-01-01T03:52:08.114Z,10.73
2023-01-01T03:54:41.736Z,10.76
2023-01-01T03:57:26.541Z,10.82
2023-01-01T04:00:16.707Z,10.94
2023-01-01T04:03:08.453Z,11.06
2023-01-01T04:05:40.701Z,11.18
2023-01-01T04:08:10.598Z,11.23
2023-01-01T04:10:44.933Z,11.28
2023-01-01T04:13:12.637Z,11.30
2023-01-01T04:15:41.018Z,11.34
2023-01-01T04:18:09.329Z,11.41
2023-01-01T04:20:37.346Z,11.49
2023-01-01T04:23:05.150Z,11.50
2023-01-01T04:25:33.061Z,11.48
2023-01-01T04:28:03.586Z,11.47
2023-01-01T04:30:31.653Z,11.46
2023-01-01T04:32:59.208Z,11.44
2023-01-01T04:35:27.087Z,11.44
2023-01-01T04:37:54.691Z,11.46
2023-01-01T04:40:22.622Z,11.45
2023-01-01T04:42:53.487Z,11.45
2023-01-01T04:45:21.503Z,11.44
2023-01-01T04:47:49.185Z,11.42
2023-01-01T04:50:17.203Z,11.40
2023-01-01T04:52:44.911Z,11.38
2023-01-01T04:55:12.912Z,11.38
2023-01-01T04:57:40.616Z,11.41
2023-01-01T05:00:09.599Z,11.39
2023-01-01T05:02:37.312Z,11.34
2023-01-01T05:05:05.683Z,11.25
2023-01-01T05:07:33.992Z,11.19
2023-01-01T05:10:01.893Z,11.16
2023-01-01T05:12:30.480Z,11.21
2023-01-01T05:14:58.277Z,11.33
2023-01-01T05:17:25.933Z,11.44
2023-01-01T05:19:53.862Z,11.53
2023-01-01T05:22:21.519Z,11.58
2023-01-01T05:24:49.409Z,11.65
2023-01-01T05:27:17.077Z,11.65
2023-01-01T05:29:44.930Z,11.65
2023-01-01T05:37:05.561Z,11.58
2023-01-01T05:39:33.332Z,11.53
2023-01-01T05:42:00.870Z,11.50
2023-01-01T05:44:28.694Z,11.48
2023-01-01T05:46:56.226Z,11.48
2023-01-01T05:49:24.178Z,11.52
2023-01-01T05:52:10.016Z,11.50
2023-01-01T05:54:37.844Z,11.50
2023-01-01T05:57:05.357Z,11.52
2023-01-01T05:59:33.159Z,11.49
2023-01-01T06:02:00.785Z,11.47
2023-01-01T06:04:28.738Z,11.44
2023-01-01T06:06:56.337Z,11.41
2023-01-01T06:09:24.131Z,11.36
2023-01-01T06:11:51.619Z,11.32
2023-01-01T06:14:19.605Z,11.31
2023-01-01T06:16:47.174Z,11.30
2023-01-01T06:19:15.027Z,11.26
2023-01-01T06:21:42.507Z,11.22
2023-01-01T06:24:10.330Z,11.17
2023-01-01T06:26:38.626Z,11.10
2023-01-01T06:29:06.596Z,11.02
2023-01-01T06:31:38.544Z,10.95
2023-01-01T06:34:09.468Z,10.90
2023-01-01T06:36:36.999Z,10.87
2023-01-01T06:39:05.432Z,10.81
2023-01-01T06:41:32.936Z,10.73
2023-01-01T06:44:02.123Z,10.64
2023-01-01T06:46:34.081Z,10.54
2023-01-01T06:49:06.665Z,10.50
2023-01-01T06:51:39.991Z,10.50
2023-01-01T06:54:09.157Z,10.47
2023-01-01T06:56:37.762Z,10.46
2023-01-01T06:59:06.247Z,10.40
2023-01-01T07:01:36.884Z,10.39
2023-01-01T07:04:10.503Z,10.42
2023-01-01T07:06:38.782Z,10.39
2023-01-01T07:09:07.965Z,10.39
2023-01-01T07:11:36.068Z,10.42
2023-01-01T07:14:04.421Z,10.41
2023-01-01T07:16:32.023Z,10.42
2023-01-01T07:19:01.318Z,10.39
2023-01-01T07:21:39.771Z,10.39
2023-01-01T07:24:12.706Z,10.34
2023-01-01T07:26:41.270Z,10.33
2023-01-01T07:29:09.437Z,10.29
2023-01-01T07:31:39.918Z,10.32
2023-01-01T07:34:13.062Z,10.38
2023-01-01T07:36:41.352Z,10.42
2023-01-01T07:39:09.589Z,10.48
2023-01-01T07:41:37.370Z,10.57
2023-01-01T07:44:05.861Z,10.63
2023-01-01T07:46:36.372Z,10.73
2023-01-01T07:49:05.278Z,10.75
2023-01-01T07:51:32.799Z,10.82
2023-01-01T07:54:06.198Z,10.90
2023-01-01T07:56:36.185Z,10.98
2023-01-01T07:59:04.951Z,11.04
2023-01-01T08:01:35.982Z,11.11
2023-01-01T08:04:05.281Z,11.12
2023-01-01T08:06:32.920Z,11.13
2023-01-01T08:09:00.811Z,11.17
2023-01-01T08:11:29.441Z,11.22
2023-01-01T08:13:57.199Z,11.25
2023-01-01T08:16:24.807Z,11.28
2023-01-01T08:18:52.678Z,11.28
2023-01-01T08:21:20.251Z,11.30
2023-01-01T08:23:48.078Z,11.31
2023-01-01T08:26:17.463Z,11.36
2023-01-01T08:28:45.638Z,11.36
2023-01-01T08:31:13.252Z,11.38
2023-01-01T08:33:41.202Z,11.42
2023-01-01T08:36:13.213Z,11.43
2023-01-01T08:38:41.488Z,11.49
2023-01-01T08:41:09.492Z,11.54
2023-01-01T08:43:37.383Z,11.63
2023-01-01T08:46:05.351Z,11.74
2023-01-01T08:48:33.284Z,11.82
2023-01-01T08:51:01.954Z,11.87
2023-01-01T08:53:32.143Z,11.95
2023-01-01T08:56:06.658Z,12.01
2023-01-01T08:58:37.806Z,12.11
2023-01-01T09:01:07.546Z,12.22
2023-01-01T09:03:35.807Z,12.30
2023-01-01T09:06:03.663Z,12.41
2023-01-01T09:08:31.559Z,12.48
2023-01-01T09:11:02.695Z,12.58
2023-01-01T09:13:31.551Z,12.70
2023-01-01T09:15:59.726Z,12.85
2023-01-01T09:18:28.139Z,13.00
2023-01-01T09:20:55.648Z,13.15
2023-01-01T09:23:23.849Z,13.22
2023-01-01T09:25:52.064Z,13.32
2023-01-01T09:28:25.499Z,13.39
2023-01-01T09:30:53.633Z,13.45
2023-01-01T09:33:22.220Z,13.49
2023-01-01T09:35:50.081Z,13.53
2023-01-01T09:38:17.924Z,13.56
2023-01-01T09:41:14.682Z,13.61
2023-01-01T09:43:56.180Z,13.64
2023-01-01T09:46:31.397Z,13.68
2023-01-01T09:49:29.578Z,13.72
2023-01-01T09:52:01.405Z,13.77
2023-01-01T09:54:45.105Z,13.84
2023-01-01T09:57:19.837Z,13.91
2023-01-01T09:59:48.185Z,13.97
2023-01-01T10:02:30.676Z,14.06
2023-01-01T10:05:32.574Z,14.15
2023-01-01T10:08:32.054Z,14.23
2023-01-01T10:11:27.250Z,14.32
2023-01-01T10:13:59.824Z,14.41
2023-01-01T10:16:42.896Z,14.49
2023-01-01T10:19:47.443Z,14.58
2023-01-01T10:22:40.862Z,14.65
2023-01-01T10:25:26.349Z,14.70
2023-01-01T10:28:11.557Z,14.76
2023-01-01T10:30:42.361Z,14.83
2023-01-01T10:33:14.751Z,14.89
2023-01-01T10:35:48.859Z,14.96
2023-01-01T10:38:27.757Z,15.06
2023-01-01T10:41:12.226Z,15.14
2023-01-01T10:43:46.658Z,15.21
2023-01-01T10:46:19.464Z,15.25
2023-01-01T10:49:07.930Z,15.32
2023-01-01T10:51:42.822Z,15.38
2023-01-01T10:54:34.908Z,15.44
2023-01-01T10:57:30.403Z,15.46
2023-01-01T11:00:17.071Z,15.52
2023-01-01T11:02:45.006Z,15.59
2023-01-01T11:05:22.819Z,15.68
2023-01-01T11:07:50.762Z,15.76
2023-01-01T11:10:25.768Z,15.86
2023-01-01T11:13:10.098Z,15.96
2023-01-01T11:15:42.989Z,16.12
2023-01-01T11:18:17.509Z,16.26
2023-01-01T11:20:53.659Z,16.39
2023-01-01T11:23:41.514Z,16.57
2023-01-01T11:26:12.476Z,16.70
2023-01-01T11:28:41.747Z,16.86
2023-01-01T11:31:25.275Z,17.04
2023-01-01T11:33:56.761Z,17.21
2023-01-01T11:36:33.085Z,17.40
2023-01-01T11:39:29.042Z,17.62
2023-01-01T11:41:59.426Z,17.77
2023-01-01T11:44:52.031Z,17.96
2023-01-01T11:47:41.866Z,18.14
2023-01-01T11:50:54.742Z,18.28
2023-01-01T11:53:22.637Z,18.43
2023-01-01T11:56:02.107Z,18.60
2023-01-01T11:59:00.049Z,18.79
2023-01-01T12:01:53.692Z,18.98
2023-01-01T12:04:50.774Z,19.17
2023-01-01T12:07:29.824Z,19.30
2023-01-01T12:10:10.178Z,19.41
2023-01-01T12:12:48.747Z,19.52
2023-01-01T12:15:41.510Z,19.65
2023-01-01T12:18:24.957Z,19.78
2023-01-01T12:21:08.650Z,19.96
2023-01-01T12:23:36.975Z,20.17
2023-01-01T12:26:47.952Z,20.33
2023-01-01T12:29:58.128Z,20.45
2023-01-01T12:32:35.072Z,20.57
2023-01-01T12:35:43.123Z,20.79
2023-01-01T12:39:04.924Z,21.06
2023-01-01T12:41:51.480Z,21.35
2023-01-01T12:45:08.552Z,21.72
2023-01-01T12:48:03.315Z,21.85
2023-01-01T12:51:15.424Z,22.14
2023-01-01T12:54:24.402Z,22.44
2023-01-01T12:57:32.002Z,22.71
2023-01-01T13:00:20.758Z,22.91
2023-01-01T13:03:07.942Z,23.11
2023-01-01T13:05:49.781Z,23.31
2023-01-01T13:08:17.987Z,23.36
2023-01-01T13:10:52.197Z,23.39
2023-01-01T13:13:20.419Z,23.47
2023-01-01T13:15:56.832Z,23.66
2023-01-01T13:18:36.921Z,23.89
2023-01-01T13:21:21.626Z,24.09
2023-01-01T13:23:51.626Z,24.26
2023-01-01T13:26:19.152Z,24.37
2023-01-01T13:28:59.620Z,24.51
2023-01-01T13:31:39.635Z,24.58
2023-01-01T13:34:35.795Z,24.59
2023-01-01T13:37:14.801Z,24.76
2023-01-01T13:40:04.562Z,24.81
2023-01-01T13:42:43.076Z,24.66
2023-01-01T13:46:10.580Z,24.38
2023-01-01T13:49:15.578Z,23.74
2023-01-01T13:52:27.121Z,23.15
2023-01-01T13:55:43.661Z,22.53
2023-01-01T13:58:39.100Z,21.88
2023-01-01T14:02:06.987Z,21.23
2023-01-01T14:04:54.691Z,20.64
2023-01-01T14:07:52.314Z,20.24
2023-01-01T14:10:23.434Z,19.88
2023-01-01T14:12:53.273Z,19.61
2023-01-01T14:15:40.028Z,19.37
2023-01-01T14:18:15.796Z,19.16
2023-01-01T14:20:53.619Z,18.95
2023-01-01T14:23:41.607Z,18.76
2023-01-01T14:26:15.215Z,18.51
2023-01-01T14:28:44.119Z,18.29
2023-01-01T14:31:19.299Z,18.10
2023-01-01T14:33:47.861Z,17.93
2023-01-01T14:36:25.395Z,17.79
2023-01-01T14:38:58.611Z,17.61
2023-01-01T14:41:38.775Z,17.49
2023-01-01T14:44:19.139Z,17.35
2023-01-01T14:46:53.805Z,17.26
2023-01-01T14:49:33.782Z,17.13
2023-01-01T14:52:09.693Z,17.01
2023-01-01T14:54:42.238Z,16.87
2023-01-01T14:57:32.464Z,16.73
2023-01-01T15:00:00.881Z,16.61
2023-01-01T15:02:33.163Z,16.52
2023-01-01T15:05:34.930Z,16.42
2023-01-01T15:08:07.292Z,16.35
2023-01-01T15:10:38.362Z,16.29
2023-01-01T15:13:08.477Z,16.19
2023-01-01T15:15:45.469Z,16.14
2023-01-01T15:18:43.369Z,16.02
2023-01-01T15:21:38.700Z,15.95
2023-01-01T15:24:15.995Z,15.87
2023-01-01T15:26:59.519Z,15.85
2023-01-01T15:29:40.517Z,15.80
2023-01-01T15:32:13.547Z,15.73
2023-01-01T15:34:41.370Z,15.67
2023-01-01T15:37:36.955Z,15.55
2023-01-01T15:40:24.840Z,15.44
2023-01-01T15:42:59.053Z,15.31
2023-01-01T15:45:32.005Z,15.19
2023-01-01T15:48:25.249Z,15.07
2023-01-01T15:50:53.116Z,15.00
2023-01-01T15:53:30.072Z,14.93
2023-01-01T15:56:09.394Z,14.86
2023-01-01T15:59:03.830Z,14.78
2023-01-01T16:01:38.824Z,14.71
2023-01-01T16:04:28.047Z,14.68
2023-01-01T16:06:58.879Z,14.65
2023-01-01T16:09:26.907Z,14.64
2023-01-01T16:11:57.605Z,14.64
2023-01-01T16:14:25.267Z,14.64
2023-01-01T16:17:00.964Z,14.66
2023-01-01T16:19:31.964Z,14.69
2023-01-01T16:21:59.847Z,14.72
2023-01-01T16:24:28.933Z,14.75
2023-01-01T16:26:56.727Z,14.77
2023-01-01T16:29:24.259Z,14.76
2023-01-01T16:31:52.903Z,14.81
2023-01-01T16:34:20.521Z,14.86
2023-01-01T16:36:49.812Z,14.88
2023-01-01T16:39:17.582Z,14.91
2023-01-01T16:41:45.578Z,14.92
2023-01-01T16:44:16.744Z,14.94
2023-01-01T16:46:44.911Z,14.95
2023-01-01T16:49:12.725Z,14.94
2023-01-01T16:51:43.869Z,14.94
2023-01-01T16:54:12.126Z,14.92
2023-01-01T16:56:39.992Z,14.92
2023-01-01T16:59:07.838Z,14.90
2023-01-01T17:01:35.962Z,14.86
2023-01-01T17:04:03.739Z,14.84
2023-01-01T17:06:31.637Z,14.83
2023-01-01T17:09:00.730Z,14.82
2023-01-01T17:11:28.707Z,14.82
2023-01-01T17:13:59.701Z,14.83
2023-01-01T17:16:32.921Z,14.83
2023-01-01T17:19:21.667Z,14.83
2023-01-01T17:21:50.449Z,14.85
2023-01-01T17:24:20.471Z,14.87
2023-01-01T17:26:53.892Z,14.92
2023-01-01T17:29:22.611Z,14.96
2023-01-01T17:31:51.636Z,15.03
2023-01-01T17:34:19.985Z,15.07
2023-01-01T17:36:47.991Z,15.12
2023-01-01T17:39:16.436Z,15.16
2023-01-01T17:41:45.311Z,15.19
2023-01-01T17:44:13.761Z,15.18
2023-01-01T17:46:47.660Z,15.17
2023-01-01T17:49:21.886Z,15.15
2023-01-01T17:51:50.681Z,15.16
2023-01-01T17:54:18.459Z,15.16
2023-01-01T17:56:46.329Z,15.15
2023-01-01T17:59:36.287Z,15.14
2023-01-01T18:02:42.317Z,15.13
2023-01-01T18:05:12.851Z,15.14
2023-01-01T18:07:44.794Z,15.14
2023-01-01T18:10:12.418Z,15.12
2023-01-01T18:12:40.303Z,15.07
2023-01-01T18:15:08.821Z,15.00
2023-01-01T18:17:36.857Z,14.91
2023-01-01T18:20:05.240Z,14.85
2023-01-01T18:22:36.776Z,14.79
2023-01-01T18:25:09.097Z,14.74
2023-01-01T18:27:37.006Z,14.69
2023-01-01T18:30:05.983Z,14.63
2023-01-01T18:32:33.959Z,14.54
2023-01-01T18:35:02.024Z,14.44
2023-01-01T18:37:30.256Z,14.36
2023-01-01T18:39:59.507Z,14.23
2023-01-01T18:42:52.999Z,14.15
2023-01-01T18:45:23.934Z,14.04
2023-01-01T18:47:52.083Z,13.98
2023-01-01T18:50:29.844Z,13.84
2023-01-01T18:53:22.254Z,13.71
2023-01-01T18:55:54.024Z,13.60
2023-01-01T18:58:24.532Z,13.51
2023-01-01T19:00:54.041Z,13.41
2023-01-01T19:03:29.406Z,13.36
2023-01-01T19:05:59.410Z,13.29
2023-01-01T19:08:30.132Z,13.21
2023-01-01T19:11:02.601Z,13.14
2023-01-01T19:13:37.699Z,13.08
2023-01-01T19:16:29.104Z,13.01
2023-01-01T19:19:18.412Z,12.97
2023-01-01T19:21:51.857Z,12.96
2023-01-01T19:24:30.669Z,12.89
2023-01-01T19:27:18.940Z,12.89
2023-01-01T19:29:48.994Z,12.88
2023-01-01T19:32:17.024Z,12.80
2023-01-01T19:34:44.907Z,12.76
2023-01-01T19:37:12.538Z,12.75
2023-01-01T19:39:40.461Z,12.71
2023-01-01T19:42:08.176Z,12.70
2023-01-01T19:44:37.201Z,12.72
2023-01-01T19:47:05.258Z,12.75
2023-01-01T19:49:33.204Z,12.79
2023-01-01T19:52:00.748Z,12.81
2023-01-01T19:54:28.682Z,12.79
2023-01-01T19:56:57.261Z,12.80
2023-01-01T19:59:32.948Z,12.81
2023-01-01T20:04:50.599Z,12.83
2023-01-01T20:07:18.829Z,12.83
2023-01-01T20:09:46.471Z,12.84
2023-01-01T20:12:14.467Z,12.89
2023-01-01T20:14:42.095Z,12.88
2023-01-01T20:17:09.969Z,12.88
2023-01-01T20:19:39.088Z,12.85
2023-01-01T20:22:14.108Z,12.83
2023-01-01T20:24:42.829Z,12.80
2023-01-01T20:27:12.187Z,12.78
2023-01-01T20:29:40.951Z,12.78
2023-01-01T20:32:12.697Z,12.82
2023-01-01T20:34:41.563Z,12.85
2023-01-01T20:37:28.469Z,12.90
2023-01-01T20:39:56.123Z,12.93
2023-01-01T20:42:24.363Z,12.98
2023-01-01T20:44:52.019Z,13.02
2023-01-01T20:47:19.976Z,13.13
2023-01-01T20:49:47.588Z,13.15
2023-01-01T20:52:16.853Z,13.13
2023-01-01T20:54:44.522Z,13.12
2023-01-01T20:57:12.796Z,13.09
2023-01-01T20:59:40.587Z,13.15
2023-01-01T21:02:12.186Z,13.22
2023-01-01T21:04:40.503Z,13.32
2023-01-01T21:07:12.826Z,13.38
2023-01-01T21:09:41.618Z,13.41
2023-01-01T21:12:11.829Z,13.36
2023-01-01T21:14:40.001Z,13.28
2023-01-01T21:17:29.471Z,13.20
2023-01-01T21:19:59.977Z,13.17
2023-01-01T21:22:28.150Z,13.16
2023-01-01T21:25:16.816Z,13.16
2023-01-01T21:27:45.904Z,13.15
2023-01-01T21:30:14.468Z,13.11
2023-01-01T21:32:49.943Z,13.04
2023-01-01T21:35:34.829Z,12.97
2023-01-01T21:38:16.607Z,12.92
2023-01-01T21:40:53.679Z,12.90
2023-01-01T21:43:24.127Z,12.90
2023-01-01T21:45:54.047Z,12.88
2023-01-01T21:48:32.260Z,12.85
2023-01-01T21:51:01.618Z,12.81
2023-01-01T21:53:34.746Z,12.74
2023-01-01T21:56:37.086Z,12.64
2023-01-01T21:59:28.722Z,12.51
2023-01-01T22:02:08.342Z,12.43
2023-01-01T22:04:46.450Z,12.37
2023-01-01T22:08:01.310Z,12.25
2023-01-01T22:10:36.198Z,12.16
2023-01-01T22:13:13.856Z,12.09
2023-01-01T22:15:44.127Z,12.02
2023-01-01T22:18:30.931Z,11.96
2023-01-01T22:21:02.700Z,11.93
2023-01-01T22:23:39.977Z,11.87
2023-01-01T22:26:18.582Z,11.79
2023-01-01T22:28:50.541Z,11.73
2023-01-01T22:31:26.780Z,11.66
2023-01-01T22:34:00.457Z,11.66
2023-01-01T22:36:34.029Z,11.65
2023-01-01T22:39:09.380Z,11.66
2023-01-01T22:41:37.601Z,11.64
2023-01-01T22:44:05.733Z,11.63
2023-01-01T22:46:40.984Z,11.59
2023-01-01T22:49:34.714Z,11.55
2023-01-01T22:52:04.619Z,11.49
2023-01-01T22:54:32.199Z,11.48
2023-01-01T22:57:00.105Z,11.44
2023-01-01T22:59:27.631Z,11.43
2023-01-01T23:01:55.525Z,11.40
2023-01-01T23:04:23.277Z,11.35
2023-01-01T23:06:51.677Z,11.34
2023-01-01T23:09:19.920Z,11.31
2023-01-01T23:11:47.973Z,11.26
2023-01-01T23:14:38.669Z,11.27
2023-01-01T23:17:07.675Z,11.23
2023-01-01T23:19:35.411Z,11.21
2023-01-01T23:22:04.345Z,11.22
2023-01-01T23:24:32.804Z,11.23
2023-01-01T23:27:01.990Z,11.22
2023-01-01T23:29:32.459Z,11.22
2023-01-01T23:32:02.002Z,11.20
2023-01-01T23:34:29.847Z,11.16
2023-01-01T23:36:58.624Z,11.15
2023-01-01T23:39:26.298Z,11.14
2023-01-01T23:41:54.260Z,11.11
2023-01-01T23:44:21.831Z,11.10
2023-01-01T23:46:49.947Z,11.08
2023-01-01T23:49:18.691Z,11.08
2023-01-01T23:51:46.839Z,11.08
2023-01-01T23:54:14.859Z,11.08
2023-01-01T23:56:44.460Z,11.06
2023-01-01T23:59:12.135Z,11.04
